sensor_id;sensor_type;location;lat;lon;timestamp;temperature;humidity
22781;DHT22;11557;50.884;4.322;2023-12-07T00:00:40;4.50;99.90
22781;DHT22;11557;50.884;4.322;2023-12-07T00:03:05;4.50;99.90
22781;DHT22;11557;50.884;4.322;2023-12-07T00:05:34;4.50;99.90
22781;DHT22;11557;50.884;4.322;2023-12-07T00:07:59;4.60;99.90
22781;DHT22;11557;50.884;4.322;2023-12-07T00:10:25;4.70;99.90
22781;DHT22;11557;50.884;4.322;2023-12-07T00:12:51;4.50;99.90
22781;DHT22;11557;50.884;4.322;2023-12-07T00:15:16;4.60;99.90
22781;DHT22;11557;50.884;4.322;2023-12-07T00:17:42;4.50;99.90
22781;DHT22;11557;50.884;4.322;2023-12-07T00:20:08;4.50;99.90
22781;DHT22;11557;50.884;4.322;2023-12-07T00:22:34;4.50;99.90
22781;DHT22;11557;50.884;4.322;2023-12-07T00:25:00;4.50;99.90
22781;DHT22;11557;50.884;4.322;2023-12-07T00:27:25;4.70;99.90
22781;DHT22;11557;50.884;4.322;2023-12-07T00:29:51;4.70;99.90
22781;DHT22;11557;50.884;4.322;2023-12-07T00:32:17;4.70;99.90
22781;DHT22;11557;50.884;4.322;2023-12-07T00:34:43;4.80;99.90
22781;DHT22;11557;50.884;4.322;2023-12-07T00:37:08;4.90;99.90
22781;DHT22;11557;50.884;4.322;2023-12-07T00:39:35;5.00;99.90
22781;DHT22;11557;50.884;4.322;2023-12-07T00:42:01;5.10;99.90
22781;DHT22;11557;50.884;4.322;2023-12-07T00:44:28;5.20;99.90
22781;DHT22;11557;50.884;4.322;2023-12-07T00:46:54;5.20;99.90
22781;DHT22;11557;50.884;4.322;2023-12-07T00:49:20;5.00;99.90
22781;DHT22;11557;50.884;4.322;2023-12-07T00:51:45;4.80;99.90
22781;DHT22;11557;50.884;4.322;2023-12-07T00:54:11;4.80;99.90
22781;DHT22;11557;50.884;4.322;2023-12-07T00:56:37;4.80;99.90
22781;DHT22;11557;50.884;4.322;2023-12-07T00:59:03;5.00;99.90
22781;DHT22;11557;50.884;4.322;2023-12-07T01:01:28;5.10;99.90
22781;DHT22;11557;50.884;4.322;2023-12-07T01:03:54;5.20;99.90
22781;DHT22;11557;50.884;4.322;2023-12-07T01:06:20;5.30;99.90
22781;DHT22;11557;50.884;4.322;2023-12-07T01:08:46;5.30;99.90
22781;DHT22;11557;50.884;4.322;2023-12-07T01:11:11;5.10;99.90
22781;DHT22;11557;50.884;4.322;2023-12-07T01:13:37;5.10;99.90
22781;DHT22;11557;50.884;4.322;2023-12-07T01:16:03;5.20;99.90
22781;DHT22;11557;50.884;4.322;2023-12-07T01:18:29;5.20;99.90
22781;DHT22;11557;50.884;4.322;2023-12-07T01:20:54;5.30;99.90
22781;DHT22;11557;50.884;4.322;2023-12-07T01:23:20;5.20;99.90
22781;DHT22;11557;50.884;4.322;2023-12-07T01:25:46;5.30;99.90
22781;DHT22;11557;50.884;4.322;2023-12-07T01:28:12;5.50;99.90
22781;DHT22;11557;50.884;4.322;2023-12-07T01:30:37;5.40;99.90
22781;DHT22;11557;50.884;4.322;2023-12-07T01:33:03;5.60;99.90
22781;DHT22;11557;50.884;4.322;2023-12-07T01:35:29;5.70;99.90
22781;DHT22;11557;50.884;4.322;2023-12-07T01:37:55;5.70;99.90
22781;DHT22;11557;50.884;4.322;2023-12-07T01:40:20;5.50;99.90
22781;DHT22;11557;50.884;4.322;2023-12-07T01:42:51;5.50;99.90
22781;DHT22;11557;50.884;4.322;2023-12-07T01:45:17;4.60;99.90
22781;DHT22;11557;50.884;4.322;2023-12-07T01:47:43;5.40;99.90
22781;DHT22;11557;50.884;4.322;2023-12-07T01:50:10;5.20;99.90
22781;DHT22;11557;50.884;4.322;2023-12-07T01:52:39;5.00;99.90
22781;DHT22;11557;50.884;4.322;2023-12-07T01:55:06;5.20;99.90
22781;DHT22;11557;50.884;4.322;2023-12-07T01:57:32;5.00;99.90
22781;DHT22;11557;50.884;4.322;2023-12-07T01:59:58;5.20;99.90
22781;DHT22;11557;50.884;4.322;2023-12-07T02:02:24;5.20;99.90
22781;DHT22;11557;50.884;4.322;2023-12-07T02:04:50;5.30;99.90
22781;DHT22;11557;50.884;4.322;2023-12-07T02:07:16;5.10;99.90
22781;DHT22;11557;50.884;4.322;2023-12-07T02:09:43;4.90;99.90
22781;DHT22;11557;50.884;4.322;2023-12-07T02:12:08;5.00;99.90
22781;DHT22;11557;50.884;4.322;2023-12-07T02:14:34;5.10;99.90
22781;DHT22;11557;50.884;4.322;2023-12-07T02:17:12;5.10;99.90
22781;DHT22;11557;50.884;4.322;2023-12-07T02:20:17;5.00;99.90
22781;DHT22;11557;50.884;4.322;2023-12-07T02:22:49;4.90;99.90
22781;DHT22;11557;50.884;4.322;2023-12-07T02:25:19;5.00;99.90
22781;DHT22;11557;50.884;4.322;2023-12-07T02:27:46;5.10;99.90
22781;DHT22;11557;50.884;4.322;2023-12-07T02:30:12;5.10;99.90
22781;DHT22;11557;50.884;4.322;2023-12-07T02:32:39;5.30;99.90
22781;DHT22;11557;50.884;4.322;2023-12-07T02:35:07;5.40;99.90
22781;DHT22;11557;50.884;4.322;2023-12-07T02:37:40;5.00;99.90
22781;DHT22;11557;50.884;4.322;2023-12-07T02:40:07;5.10;99.90
22781;DHT22;11557;50.884;4.322;2023-12-07T02:42:40;4.70;99.90
22781;DHT22;11557;50.884;4.322;2023-12-07T02:45:09;4.80;99.90
22781;DHT22;11557;50.884;4.322;2023-12-07T02:47:35;4.90;99.90
22781;DHT22;11557;50.884;4.322;2023-12-07T02:50:02;5.00;99.90
22781;DHT22;11557;50.884;4.322;2023-12-07T02:52:28;4.90;99.90
22781;DHT22;11557;50.884;4.322;2023-12-07T02:54:54;5.10;99.90
22781;DHT22;11557;50.884;4.322;2023-12-07T02:57:20;5.10;99.90
22781;DHT22;11557;50.884;4.322;2023-12-07T02:59:45;5.10;99.90
22781;DHT22;11557;50.884;4.322;2023-12-07T03:02:11;5.30;99.90
22781;DHT22;11557;50.884;4.322;2023-12-07T03:04:36;5.50;99.90
22781;DHT22;11557;50.884;4.322;2023-12-07T03:07:02;5.30;99.90
22781;DHT22;11557;50.884;4.322;2023-12-07T03:09:28;5.30;99.90
22781;DHT22;11557;50.884;4.322;2023-12-07T03:11:53;5.30;99.90
22781;DHT22;11557;50.884;4.322;2023-12-07T03:14:19;5.40;99.90
22781;DHT22;11557;50.884;4.322;2023-12-07T03:16:45;5.40;99.90
22781;DHT22;11557;50.884;4.322;2023-12-07T03:19:11;5.50;99.90
22781;DHT22;11557;50.884;4.322;2023-12-07T03:21:40;5.60;99.90
22781;DHT22;11557;50.884;4.322;2023-12-07T03:24:09;5.60;99.90
22781;DHT22;11557;50.884;4.322;2023-12-07T03:26:35;5.60;99.90
22781;DHT22;11557;50.884;4.322;2023-12-07T03:29:01;5.80;99.90
22781;DHT22;11557;50.884;4.322;2023-12-07T03:31:27;5.80;99.90
22781;DHT22;11557;50.884;4.322;2023-12-07T03:33:55;5.70;99.90
22781;DHT22;11557;50.884;4.322;2023-12-07T03:36:21;5.80;99.90
22781;DHT22;11557;50.884;4.322;2023-12-07T03:38:48;5.90;99.90
22781;DHT22;11557;50.884;4.322;2023-12-07T03:41:13;5.80;99.90
22781;DHT22;11557;50.884;4.322;2023-12-07T03:43:39;5.60;99.90
22781;DHT22;11557;50.884;4.322;2023-12-07T03:46:08;5.50;99.90
22781;DHT22;11557;50.884;4.322;2023-12-07T03:48:34;5.30;99.90
22781;DHT22;11557;50.884;4.322;2023-12-07T03:51:00;5.40;99.90
22781;DHT22;11557;50.884;4.322;2023-12-07T03:53:28;5.50;99.90
22781;DHT22;11557;50.884;4.322;2023-12-07T03:55:53;5.60;99.90
22781;DHT22;11557;50.884;4.322;2023-12-07T03:58:19;5.50;99.90
22781;DHT22;11557;50.884;4.322;2023-12-07T04:00:45;5.50;99.90
22781;DHT22;11557;50.884;4.322;2023-12-07T04:03:11;5.30;99.90
22781;DHT22;11557;50.884;4.322;2023-12-07T04:05:38;5.60;99.90
22781;DHT22;11557;50.884;4.322;2023-12-07T04:08:03;5.70;99.90
22781;DHT22;11557;50.884;4.322;2023-12-07T04:10:32;5.70;99.90
22781;DHT22;11557;50.884;4.322;2023-12-07T04:12:58;5.70;99.90
22781;DHT22;11557;50.884;4.322;2023-12-07T04:15:24;5.60;99.90
22781;DHT22;11557;50.884;4.322;2023-12-07T04:17:50;5.80;99.90
22781;DHT22;11557;50.884;4.322;2023-12-07T04:20:16;5.90;99.90
22781;DHT22;11557;50.884;4.322;2023-12-07T04:22:43;5.80;99.90
22781;DHT22;11557;50.884;4.322;2023-12-07T04:25:10;5.70;99.90
22781;DHT22;11557;50.884;4.322;2023-12-07T04:27:36;5.60;99.90
22781;DHT22;11557;50.884;4.322;2023-12-07T04:30:02;5.60;99.90
22781;DHT22;11557;50.884;4.322;2023-12-07T04:32:29;5.50;99.90
22781;DHT22;11557;50.884;4.322;2023-12-07T04:34:55;5.60;99.90
22781;DHT22;11557;50.884;4.322;2023-12-07T04:37:21;5.60;99.90
22781;DHT22;11557;50.884;4.322;2023-12-07T04:39:46;5.90;99.90
22781;DHT22;11557;50.884;4.322;2023-12-07T04:42:12;5.80;99.90
22781;DHT22;11557;50.884;4.322;2023-12-07T04:44:38;5.90;99.90
22781;DHT22;11557;50.884;4.322;2023-12-07T04:47:04;5.80;99.90
22781;DHT22;11557;50.884;4.322;2023-12-07T04:49:30;5.50;99.90
22781;DHT22;11557;50.884;4.322;2023-12-07T04:51:55;5.50;99.90
22781;DHT22;11557;50.884;4.322;2023-12-07T04:54:21;5.50;99.90
22781;DHT22;11557;50.884;4.322;2023-12-07T04:56:47;5.30;99.90
22781;DHT22;11557;50.884;4.322;2023-12-07T04:59:13;5.10;99.90
22781;DHT22;11557;50.884;4.322;2023-12-07T05:01:38;5.00;99.90
22781;DHT22;11557;50.884;4.322;2023-12-07T05:04:05;5.10;99.90
22781;DHT22;11557;50.884;4.322;2023-12-07T05:06:31;5.30;99.90
22781;DHT22;11557;50.884;4.322;2023-12-07T05:08:57;5.40;99.90
22781;DHT22;11557;50.884;4.322;2023-12-07T05:11:23;5.50;99.90
22781;DHT22;11557;50.884;4.322;2023-12-07T05:13:49;5.60;99.90
22781;DHT22;11557;50.884;4.322;2023-12-07T05:16:14;5.70;99.90
22781;DHT22;11557;50.884;4.322;2023-12-07T05:18:40;5.70;99.90
22781;DHT22;11557;50.884;4.322;2023-12-07T05:21:07;5.80;99.90
22781;DHT22;11557;50.884;4.322;2023-12-07T05:23:33;5.80;99.90
22781;DHT22;11557;50.884;4.322;2023-12-07T05:25:59;5.70;99.90
22781;DHT22;11557;50.884;4.322;2023-12-07T05:28:25;5.60;99.90
22781;DHT22;11557;50.884;4.322;2023-12-07T05:30:51;5.50;99.90
22781;DHT22;11557;50.884;4.322;2023-12-07T05:33:18;5.60;99.90
22781;DHT22;11557;50.884;4.322;2023-12-07T05:35:45;5.50;99.90
22781;DHT22;11557;50.884;4.322;2023-12-07T05:38:11;5.40;99.90
22781;DHT22;11557;50.884;4.322;2023-12-07T05:40:36;5.40;99.90
22781;DHT22;11557;50.884;4.322;2023-12-07T05:43:02;5.30;99.90
22781;DHT22;11557;50.884;4.322;2023-12-07T05:45:29;5.10;99.90
22781;DHT22;11557;50.884;4.322;2023-12-07T05:47:55;5.10;99.90
22781;DHT22;11557;50.884;4.322;2023-12-07T05:50:21;5.30;99.90
22781;DHT22;11557;50.884;4.322;2023-12-07T05:52:47;5.30;99.90
22781;DHT22;11557;50.884;4.322;2023-12-07T05:55:13;5.30;99.90
22781;DHT22;11557;50.884;4.322;2023-12-07T05:57:39;5.20;99.90
22781;DHT22;11557;50.884;4.322;2023-12-07T06:00:06;5.20;99.90
22781;DHT22;11557;50.884;4.322;2023-12-07T06:02:36;5.20;99.90
22781;DHT22;11557;50.884;4.322;2023-12-07T06:05:02;5.10;99.90
22781;DHT22;11557;50.884;4.322;2023-12-07T06:07:29;5.00;99.90
22781;DHT22;11557;50.884;4.322;2023-12-07T06:09:55;4.90;99.90
22781;DHT22;11557;50.884;4.322;2023-12-07T06:12:21;5.20;99.90
22781;DHT22;11557;50.884;4.322;2023-12-07T06:14:48;5.10;99.90
22781;DHT22;11557;50.884;4.322;2023-12-07T06:17:13;5.10;99.90
22781;DHT22;11557;50.884;4.322;2023-12-07T06:19:39;5.20;99.90
22781;DHT22;11557;50.884;4.322;2023-12-07T06:22:05;5.30;99.90
22781;DHT22;11557;50.884;4.322;2023-12-07T06:24:31;5.20;99.90
22781;DHT22;11557;50.884;4.322;2023-12-07T06:26:58;5.40;99.90
22781;DHT22;11557;50.884;4.322;2023-12-07T06:29:23;5.40;99.90
22781;DHT22;11557;50.884;4.322;2023-12-07T06:31:49;5.30;99.90
22781;DHT22;11557;50.884;4.322;2023-12-07T06:34:15;5.30;99.90
22781;DHT22;11557;50.884;4.322;2023-12-07T06:36:41;5.40;99.90
22781;DHT22;11557;50.884;4.322;2023-12-07T06:39:07;5.30;99.90
22781;DHT22;11557;50.884;4.322;2023-12-07T06:41:32;5.30;99.90
22781;DHT22;11557;50.884;4.322;2023-12-07T06:43:58;5.30;99.90
22781;DHT22;11557;50.884;4.322;2023-12-07T06:46:24;5.20;99.90
22781;DHT22;11557;50.884;4.322;2023-12-07T06:48:49;5.30;99.90
22781;DHT22;11557;50.884;4.322;2023-12-07T06:51:15;5.30;99.90
22781;DHT22;11557;50.884;4.322;2023-12-07T06:53:41;5.30;99.90
22781;DHT22;11557;50.884;4.322;2023-12-07T06:56:08;5.50;99.90
22781;DHT22;11557;50.884;4.322;2023-12-07T06:58:34;5.60;99.90
22781;DHT22;11557;50.884;4.322;2023-12-07T07:00:59;5.60;99.90
22781;DHT22;11557;50.884;4.322;2023-12-07T07:03:25;5.70;99.90
22781;DHT22;11557;50.884;4.322;2023-12-07T07:05:55;5.60;99.90
22781;DHT22;11557;50.884;4.322;2023-12-07T07:08:21;5.50;99.90
22781;DHT22;11557;50.884;4.322;2023-12-07T07:10:47;5.60;99.90
22781;DHT22;11557;50.884;4.322;2023-12-07T07:13:13;5.60;99.90
22781;DHT22;11557;50.884;4.322;2023-12-07T07:15:42;5.60;99.90
22781;DHT22;11557;50.884;4.322;2023-12-07T07:18:09;5.60;99.90
22781;DHT22;11557;50.884;4.322;2023-12-07T07:20:35;5.50;99.90
22781;DHT22;11557;50.884;4.322;2023-12-07T07:23:00;5.30;99.90
22781;DHT22;11557;50.884;4.322;2023-12-07T07:25:26;5.40;99.90
22781;DHT22;11557;50.884;4.322;2023-12-07T07:27:52;5.40;99.90
22781;DHT22;11557;50.884;4.322;2023-12-07T07:30:20;5.40;99.90
22781;DHT22;11557;50.884;4.322;2023-12-07T07:32:46;5.50;99.90
22781;DHT22;11557;50.884;4.322;2023-12-07T07:35:12;5.30;99.90
22781;DHT22;11557;50.884;4.322;2023-12-07T07:37:41;5.30;99.90
22781;DHT22;11557;50.884;4.322;2023-12-07T07:40:10;5.30;99.90
22781;DHT22;11557;50.884;4.322;2023-12-07T07:42:40;5.30;99.90
22781;DHT22;11557;50.884;4.322;2023-12-07T07:45:07;5.30;99.90
22781;DHT22;11557;50.884;4.322;2023-12-07T07:47:33;5.30;99.90
22781;DHT22;11557;50.884;4.322;2023-12-07T07:49:59;5.30;99.90
22781;DHT22;11557;50.884;4.322;2023-12-07T07:52:30;5.30;99.90
22781;DHT22;11557;50.884;4.322;2023-12-07T07:54:56;5.40;99.90
22781;DHT22;11557;50.884;4.322;2023-12-07T07:57:22;5.50;99.90
22781;DHT22;11557;50.884;4.322;2023-12-07T07:59:47;5.60;99.90
22781;DHT22;11557;50.884;4.322;2023-12-07T08:02:13;5.50;99.90
22781;DHT22;11557;50.884;4.322;2023-12-07T08:04:38;5.40;99.90
22781;DHT22;11557;50.884;4.322;2023-12-07T08:07:04;5.40;99.90
22781;DHT22;11557;50.884;4.322;2023-12-07T08:09:30;5.40;99.90
22781;DHT22;11557;50.884;4.322;2023-12-07T08:11:55;5.50;99.90
22781;DHT22;11557;50.884;4.322;2023-12-07T08:14:21;5.50;99.90
22781;DHT22;11557;50.884;4.322;2023-12-07T08:16:46;5.50;99.90
22781;DHT22;11557;50.884;4.322;2023-12-07T08:19:13;5.60;99.90
22781;DHT22;11557;50.884;4.322;2023-12-07T08:21:38;5.70;99.90
22781;DHT22;11557;50.884;4.322;2023-12-07T08:24:04;5.80;99.90
22781;DHT22;11557;50.884;4.322;2023-12-07T08:26:31;5.80;99.90
22781;DHT22;11557;50.884;4.322;2023-12-07T08:28:57;5.80;99.90
22781;DHT22;11557;50.884;4.322;2023-12-07T08:31:23;5.80;99.90
22781;DHT22;11557;50.884;4.322;2023-12-07T08:33:52;5.80;99.90
22781;DHT22;11557;50.884;4.322;2023-12-07T08:36:18;5.90;99.90
22781;DHT22;11557;50.884;4.322;2023-12-07T08:38:43;6.00;99.90
22781;DHT22;11557;50.884;4.322;2023-12-07T08:41:09;5.90;99.90
22781;DHT22;11557;50.884;4.322;2023-12-07T08:43:35;5.90;99.90
22781;DHT22;11557;50.884;4.322;2023-12-07T08:46:00;5.90;99.90
22781;DHT22;11557;50.884;4.322;2023-12-07T08:48:26;5.90;99.90
22781;DHT22;11557;50.884;4.322;2023-12-07T08:50:51;6.00;99.90
22781;DHT22;11557;50.884;4.322;2023-12-07T08:53:17;6.10;99.90
22781;DHT22;11557;50.884;4.322;2023-12-07T08:55:43;6.20;99.90
22781;DHT22;11557;50.884;4.322;2023-12-07T08:58:09;6.40;99.90
22781;DHT22;11557;50.884;4.322;2023-12-07T09:00:37;6.40;99.90
22781;DHT22;11557;50.884;4.322;2023-12-07T09:03:02;6.40;99.90
22781;DHT22;11557;50.884;4.322;2023-12-07T09:05:28;6.50;99.90
22781;DHT22;11557;50.884;4.322;2023-12-07T09:07:55;6.50;99.90
22781;DHT22;11557;50.884;4.322;2023-12-07T09:10:22;6.50;99.90
22781;DHT22;11557;50.884;4.322;2023-12-07T09:12:47;6.60;99.90
22781;DHT22;11557;50.884;4.322;2023-12-07T09:15:13;6.70;99.90
22781;DHT22;11557;50.884;4.322;2023-12-07T09:17:39;6.80;99.90
22781;DHT22;11557;50.884;4.322;2023-12-07T09:20:09;6.80;99.90
22781;DHT22;11557;50.884;4.322;2023-12-07T09:22:40;6.80;99.90
22781;DHT22;11557;50.884;4.322;2023-12-07T09:25:06;6.50;99.90
22781;DHT22;11557;50.884;4.322;2023-12-07T09:27:33;6.50;99.90
22781;DHT22;11557;50.884;4.322;2023-12-07T09:30:00;6.60;99.90
22781;DHT22;11557;50.884;4.322;2023-12-07T09:32:26;6.70;99.90
22781;DHT22;11557;50.884;4.322;2023-12-07T09:34:53;6.60;99.90
22781;DHT22;11557;50.884;4.322;2023-12-07T09:37:19;6.60;99.90
22781;DHT22;11557;50.884;4.322;2023-12-07T09:39:45;6.50;99.90
22781;DHT22;11557;50.884;4.322;2023-12-07T09:42:11;6.60;99.90
22781;DHT22;11557;50.884;4.322;2023-12-07T09:44:37;6.70;99.90
22781;DHT22;11557;50.884;4.322;2023-12-07T09:47:02;6.70;99.90
22781;DHT22;11557;50.884;4.322;2023-12-07T09:49:29;6.80;99.90
22781;DHT22;11557;50.884;4.322;2023-12-07T09:51:57;6.90;99.90
22781;DHT22;11557;50.884;4.322;2023-12-07T09:54:23;6.90;99.90
22781;DHT22;11557;50.884;4.322;2023-12-07T09:56:50;7.00;99.90
22781;DHT22;11557;50.884;4.322;2023-12-07T09:59:18;7.00;99.90
22781;DHT22;11557;50.884;4.322;2023-12-07T10:01:44;7.00;99.90
22781;DHT22;11557;50.884;4.322;2023-12-07T10:04:17;7.10;99.90
22781;DHT22;11557;50.884;4.322;2023-12-07T10:06:44;7.10;99.90
22781;DHT22;11557;50.884;4.322;2023-12-07T10:09:11;7.10;99.90
22781;DHT22;11557;50.884;4.322;2023-12-07T10:11:37;7.00;99.90
22781;DHT22;11557;50.884;4.322;2023-12-07T10:14:03;7.00;99.90
22781;DHT22;11557;50.884;4.322;2023-12-07T10:16:28;7.00;99.90
22781;DHT22;11557;50.884;4.322;2023-12-07T10:18:54;7.00;99.90
22781;DHT22;11557;50.884;4.322;2023-12-07T10:21:32;7.00;99.90
22781;DHT22;11557;50.884;4.322;2023-12-07T10:23:58;7.20;99.90
22781;DHT22;11557;50.884;4.322;2023-12-07T10:26:24;7.20;99.90
22781;DHT22;11557;50.884;4.322;2023-12-07T10:28:51;7.40;99.90
22781;DHT22;11557;50.884;4.322;2023-12-07T10:31:19;7.70;99.90
22781;DHT22;11557;50.884;4.322;2023-12-07T10:33:52;7.20;99.90
22781;DHT22;11557;50.884;4.322;2023-12-07T10:36:17;8.30;99.90
22781;DHT22;11557;50.884;4.322;2023-12-07T10:38:43;8.40;99.90
22781;DHT22;11557;50.884;4.322;2023-12-07T10:41:12;8.70;99.90
22781;DHT22;11557;50.884;4.322;2023-12-07T10:43:43;8.90;99.90
22781;DHT22;11557;50.884;4.322;2023-12-07T10:46:13;9.00;99.90
22781;DHT22;11557;50.884;4.322;2023-12-07T10:48:40;9.00;99.90
22781;DHT22;11557;50.884;4.322;2023-12-07T10:51:09;9.00;99.90
22781;DHT22;11557;50.884;4.322;2023-12-07T10:53:43;9.20;99.90
22781;DHT22;11557;50.884;4.322;2023-12-07T10:56:28;8.70;99.90
22781;DHT22;11557;50.884;4.322;2023-12-07T10:58:55;8.50;99.90
22781;DHT22;11557;50.884;4.322;2023-12-07T11:01:23;8.40;99.90
22781;DHT22;11557;50.884;4.322;2023-12-07T11:03:50;8.50;99.90
22781;DHT22;11557;50.884;4.322;2023-12-07T11:06:39;8.60;99.90
22781;DHT22;11557;50.884;4.322;2023-12-07T11:12:24;8.10;99.90
22781;DHT22;11557;50.884;4.322;2023-12-07T11:18:40;8.10;99.90
22781;DHT22;11557;50.884;4.322;2023-12-07T11:21:06;8.20;99.90
22781;DHT22;11557;50.884;4.322;2023-12-07T11:23:32;8.30;99.90
22781;DHT22;11557;50.884;4.322;2023-12-07T11:25:57;8.40;99.90
22781;DHT22;11557;50.884;4.322;2023-12-07T11:28:36;8.40;99.90
22781;DHT22;11557;50.884;4.322;2023-12-07T11:31:05;8.30;99.90
22781;DHT22;11557;50.884;4.322;2023-12-07T11:33:31;8.30;99.90
22781;DHT22;11557;50.884;4.322;2023-12-07T11:38:29;8.30;99.90
22781;DHT22;11557;50.884;4.322;2023-12-07T11:40:56;8.40;99.90
22781;DHT22;11557;50.884;4.322;2023-12-07T11:46:01;8.30;99.90
22781;DHT22;11557;50.884;4.322;2023-12-07T11:48:27;8.30;99.90
22781;DHT22;11557;50.884;4.322;2023-12-07T11:51:13;8.20;99.90
22781;DHT22;11557;50.884;4.322;2023-12-07T11:53:39;8.20;99.90
22781;DHT22;11557;50.884;4.322;2023-12-07T11:56:06;8.10;99.90
22781;DHT22;11557;50.884;4.322;2023-12-07T11:58:34;8.10;99.90
22781;DHT22;11557;50.884;4.322;2023-12-07T12:01:01;8.10;99.90
22781;DHT22;11557;50.884;4.322;2023-12-07T12:03:28;8.10;99.90
22781;DHT22;11557;50.884;4.322;2023-12-07T12:05:55;7.90;99.90
22781;DHT22;11557;50.884;4.322;2023-12-07T12:08:21;7.90;99.90
22781;DHT22;11557;50.884;4.322;2023-12-07T12:10:48;7.90;99.90
22781;DHT22;11557;50.884;4.322;2023-12-07T12:13:15;8.10;99.90
22781;DHT22;11557;50.884;4.322;2023-12-07T12:15:42;7.90;99.90
22781;DHT22;11557;50.884;4.322;2023-12-07T12:18:10;8.00;99.90
22781;DHT22;11557;50.884;4.322;2023-12-07T12:20:37;8.00;99.90
22781;DHT22;11557;50.884;4.322;2023-12-07T12:23:03;8.00;99.90
22781;DHT22;11557;50.884;4.322;2023-12-07T12:25:30;7.90;99.90
22781;DHT22;11557;50.884;4.322;2023-12-07T12:27:58;7.90;99.90
22781;DHT22;11557;50.884;4.322;2023-12-07T12:30:26;7.90;99.90
22781;DHT22;11557;50.884;4.322;2023-12-07T12:32:52;7.90;99.90
22781;DHT22;11557;50.884;4.322;2023-12-07T12:35:18;7.90;99.90
22781;DHT22;11557;50.884;4.322;2023-12-07T12:37:45;7.90;99.90
22781;DHT22;11557;50.884;4.322;2023-12-07T12:40:13;8.00;99.90
22781;DHT22;11557;50.884;4.322;2023-12-07T12:42:42;8.10;99.90
22781;DHT22;11557;50.884;4.322;2023-12-07T12:45:12;8.10;99.90
22781;DHT22;11557;50.884;4.322;2023-12-07T12:47:39;8.10;99.90
22781;DHT22;11557;50.884;4.322;2023-12-07T12:50:06;8.10;99.90
22781;DHT22;11557;50.884;4.322;2023-12-07T12:52:33;8.10;99.90
22781;DHT22;11557;50.884;4.322;2023-12-07T12:54:58;8.00;99.90
22781;DHT22;11557;50.884;4.322;2023-12-07T12:57:25;7.80;99.90
22781;DHT22;11557;50.884;4.322;2023-12-07T12:59:51;7.80;99.90
22781;DHT22;11557;50.884;4.322;2023-12-07T13:02:17;7.80;99.90
22781;DHT22;11557;50.884;4.322;2023-12-07T13:04:49;7.90;99.90
22781;DHT22;11557;50.884;4.322;2023-12-07T13:07:15;7.90;99.90
22781;DHT22;11557;50.884;4.322;2023-12-07T13:09:40;7.80;99.90
22781;DHT22;11557;50.884;4.322;2023-12-07T13:12:07;7.80;99.90
22781;DHT22;11557;50.884;4.322;2023-12-07T13:14:33;7.60;99.90
22781;DHT22;11557;50.884;4.322;2023-12-07T13:17:01;7.50;99.90
22781;DHT22;11557;50.884;4.322;2023-12-07T13:19:27;7.40;99.90
22781;DHT22;11557;50.884;4.322;2023-12-07T13:21:53;7.50;99.90
22781;DHT22;11557;50.884;4.322;2023-12-07T13:24:18;7.70;99.90
22781;DHT22;11557;50.884;4.322;2023-12-07T13:26:44;7.70;99.90
22781;DHT22;11557;50.884;4.322;2023-12-07T13:29:10;7.70;99.90
22781;DHT22;11557;50.884;4.322;2023-12-07T13:31:36;7.60;99.90
22781;DHT22;11557;50.884;4.322;2023-12-07T13:34:01;7.70;99.90
22781;DHT22;11557;50.884;4.322;2023-12-07T13:36:27;7.80;99.90
22781;DHT22;11557;50.884;4.322;2023-12-07T13:38:55;7.60;99.90
22781;DHT22;11557;50.884;4.322;2023-12-07T13:41:21;7.50;99.90
22781;DHT22;11557;50.884;4.322;2023-12-07T13:43:47;7.50;99.90
22781;DHT22;11557;50.884;4.322;2023-12-07T13:46:19;7.40;99.90
22781;DHT22;11557;50.884;4.322;2023-12-07T13:48:45;7.50;99.90
22781;DHT22;11557;50.884;4.322;2023-12-07T13:51:12;7.50;99.90
22781;DHT22;11557;50.884;4.322;2023-12-07T13:53:38;7.50;99.90
22781;DHT22;11557;50.884;4.322;2023-12-07T13:56:05;7.50;99.90
22781;DHT22;11557;50.884;4.322;2023-12-07T13:58:33;7.50;99.90
22781;DHT22;11557;50.884;4.322;2023-12-07T14:01:00;7.60;99.90
22781;DHT22;11557;50.884;4.322;2023-12-07T14:03:27;7.50;99.90
22781;DHT22;11557;50.884;4.322;2023-12-07T14:05:53;7.30;99.90
22781;DHT22;11557;50.884;4.322;2023-12-07T14:08:18;7.30;99.90
22781;DHT22;11557;50.884;4.322;2023-12-07T14:10:45;7.20;99.90
22781;DHT22;11557;50.884;4.322;2023-12-07T14:13:10;7.20;99.90
22781;DHT22;11557;50.884;4.322;2023-12-07T14:15:36;7.20;99.90
22781;DHT22;11557;50.884;4.322;2023-12-07T14:18:02;7.20;99.90
22781;DHT22;11557;50.884;4.322;2023-12-07T14:20:28;7.20;99.90
22781;DHT22;11557;50.884;4.322;2023-12-07T14:22:55;7.10;99.90
22781;DHT22;11557;50.884;4.322;2023-12-07T14:25:21;7.00;99.90
22781;DHT22;11557;50.884;4.322;2023-12-07T14:27:47;7.00;99.90
22781;DHT22;11557;50.884;4.322;2023-12-07T14:30:13;7.10;99.90
22781;DHT22;11557;50.884;4.322;2023-12-07T14:32:43;7.20;99.90
22781;DHT22;11557;50.884;4.322;2023-12-07T14:35:14;7.20;99.90
22781;DHT22;11557;50.884;4.322;2023-12-07T14:37:39;7.20;99.90
22781;DHT22;11557;50.884;4.322;2023-12-07T14:40:07;7.30;99.90
22781;DHT22;11557;50.884;4.322;2023-12-07T14:42:34;7.30;99.90
22781;DHT22;11557;50.884;4.322;2023-12-07T14:44:59;7.20;99.90
22781;DHT22;11557;50.884;4.322;2023-12-07T14:47:25;7.30;99.90
22781;DHT22;11557;50.884;4.322;2023-12-07T14:49:51;7.30;99.90
22781;DHT22;11557;50.884;4.322;2023-12-07T14:52:17;7.30;99.90
22781;DHT22;11557;50.884;4.322;2023-12-07T14:54:42;7.10;99.90
22781;DHT22;11557;50.884;4.322;2023-12-07T14:57:08;7.10;99.90
22781;DHT22;11557;50.884;4.322;2023-12-07T14:59:35;7.00;99.90
22781;DHT22;11557;50.884;4.322;2023-12-07T15:02:01;7.00;99.90
22781;DHT22;11557;50.884;4.322;2023-12-07T15:04:27;7.00;99.90
22781;DHT22;11557;50.884;4.322;2023-12-07T15:06:52;7.00;99.90
22781;DHT22;11557;50.884;4.322;2023-12-07T15:09:20;7.00;99.90
22781;DHT22;11557;50.884;4.322;2023-12-07T15:11:46;7.10;99.90
22781;DHT22;11557;50.884;4.322;2023-12-07T15:14:12;6.90;99.90
22781;DHT22;11557;50.884;4.322;2023-12-07T15:16:38;6.90;99.90
22781;DHT22;11557;50.884;4.322;2023-12-07T15:19:04;7.00;99.90
22781;DHT22;11557;50.884;4.322;2023-12-07T15:21:30;7.10;99.90
22781;DHT22;11557;50.884;4.322;2023-12-07T15:23:58;7.10;99.90
22781;DHT22;11557;50.884;4.322;2023-12-07T15:26:24;7.00;99.90
22781;DHT22;11557;50.884;4.322;2023-12-07T15:28:50;6.90;99.90
22781;DHT22;11557;50.884;4.322;2023-12-07T15:31:17;7.00;99.90
22781;DHT22;11557;50.884;4.322;2023-12-07T15:33:42;7.00;99.90
22781;DHT22;11557;50.884;4.322;2023-12-07T15:36:08;7.00;99.90
22781;DHT22;11557;50.884;4.322;2023-12-07T15:38:34;7.00;99.90
22781;DHT22;11557;50.884;4.322;2023-12-07T15:41:00;7.00;99.90
22781;DHT22;11557;50.884;4.322;2023-12-07T15:43:28;6.90;99.90
22781;DHT22;11557;50.884;4.322;2023-12-07T15:45:54;6.90;99.90
22781;DHT22;11557;50.884;4.322;2023-12-07T15:48:20;6.90;99.90
22781;DHT22;11557;50.884;4.322;2023-12-07T15:50:49;7.00;99.90
22781;DHT22;11557;50.884;4.322;2023-12-07T15:53:15;6.90;99.90